Hopkins Field


Codes: KAIB/
Name: Hopkins Field
City: Nucla
Country: United States
Elevation: 5940 ft.

Photos at Hopkins Field


   Photos courtesy of SpottingLog. You can add your own sightings and photos by signing up for a free trial today.



No photos found.

Weather at Hopkins Field


Time (UTC)DescriptionTempratureWindCloud coverageVisibilityPressureHumidity
23-May-2024 21:00Clear Sky24°C25 mph, W0%10000m1012hPa12%
24-May-2024 00:00Scattered Clouds22°C20 mph, NW32%10000m1009hPa16%
24-May-2024 03:00Broken Clouds16°C7 mph, N67%10000m1010hPa16%
24-May-2024 06:00Overcast Clouds10°C4 mph, NE100%10000m1012hPa26%
24-May-2024 09:00Broken Clouds6°C2 mph, N59%10000m1012hPa34%
24-May-2024 12:00Scattered Clouds5°C4 mph, E31%10000m1013hPa41%
24-May-2024 15:00Scattered Clouds12°C0 mph, SW29%10000m1012hPa29%
24-May-2024 18:00Few Clouds18°C4 mph, NW24%10000m1009hPa19%
24-May-2024 21:00Scattered Clouds22°C20 mph, SW50%10000m1004hPa18%
25-May-2024 00:00Broken Clouds22°C20 mph, SW73%10000m1002hPa18%
25-May-2024 03:00Broken Clouds17°C11 mph, S72%10000m1001hPa26%
25-May-2024 06:00Overcast Clouds15°C11 mph, S86%10000m1004hPa25%
25-May-2024 09:00Overcast Clouds13°C16 mph, S86%10000m1004hPa30%
25-May-2024 12:00Overcast Clouds12°C11 mph, S91%10000m1005hPa33%
25-May-2024 15:00Overcast Clouds16°C29 mph, SW100%10000m1004hPa28%
25-May-2024 18:00Overcast Clouds19°C27 mph, SW92%10000m1003hPa23%
25-May-2024 21:00Light Rain18°C38 mph, W100%10000m1002hPa31%
26-May-2024 00:00Light Rain17°C18 mph, SW95%10000m1005hPa30%
26-May-2024 03:00Broken Clouds13°C4 mph, N69%10000m1007hPa35%
26-May-2024 06:00Scattered Clouds11°C9 mph, E41%10000m1011hPa43%
26-May-2024 09:00Scattered Clouds9°C7 mph, SE29%10000m1012hPa45%
26-May-2024 12:00Scattered Clouds8°C7 mph, SE27%10000m1013hPa46%
26-May-2024 15:00Few Clouds15°C2 mph, S17%10000m1012hPa32%
26-May-2024 18:00Clear Sky20°C9 mph, W9%10000m1010hPa23%
26-May-2024 21:00Clear Sky23°C20 mph, W0%10000m1009hPa18%
27-May-2024 00:00Few Clouds22°C18 mph, W11%10000m1009hPa18%
27-May-2024 03:00Few Clouds16°C7 mph, NE22%10000m1011hPa27%
27-May-2024 06:00Few Clouds12°C7 mph, E11%10000m1015hPa35%
27-May-2024 09:00Clear Sky11°C4 mph, E0%10000m1016hPa37%
27-May-2024 12:00Clear Sky9°C4 mph, E0%10000m1017hPa39%
27-May-2024 15:00Clear Sky16°C2 mph, W0%10000m1017hPa28%
27-May-2024 18:00Clear Sky22°C7 mph, W0%10000m1015hPa19%
27-May-2024 21:00Clear Sky25°C9 mph, W0%10000m1012hPa15%
28-May-2024 00:00Clear Sky25°C16 mph, W4%10000m1011hPa16%
28-May-2024 03:00Broken Clouds17°C7 mph, N54%10000m1013hPa25%
28-May-2024 06:00Scattered Clouds14°C7 mph, E27%10000m1017hPa31%
28-May-2024 09:00Clear Sky12°C4 mph, E0%10000m1016hPa31%
28-May-2024 12:00Clear Sky11°C4 mph, E0%10000m1017hPa33%
28-May-2024 15:00Clear Sky19°C2 mph, W0%10000m1016hPa24%
28-May-2024 18:00Clear Sky26°C7 mph, W1%10000m1013hPa15%